Terminal Aerodrome Forecast
Issued by NWS

Home | Current Version | Previous Version | Text Only | Print | Product List | Glossary On
Versions: 1 2 3 4 5 6 7 8 9 10 11 12 13 14
736
FTUS45 KFGZ 201741
TAFSEZ
TAF
KSEZ 201741Z 2018/2118 VRB05KT P6SM SCT100 BKN130
      TEMPO 2021/2101 VRB13G23KT 6SM -TSRA BKN080CB
     FM210400 04010KT P6SM SCT100=

USA.gov is the U.S. government's official web portal to all federal, state and local government web resources and services.